createdAt,value
2023-04-17T00:02:41.365Z,10.55
2023-04-17T00:05:28.456Z,10.47
2023-04-17T00:08:15.031Z,10.39
2023-04-17T00:11:07.693Z,10.34
2023-04-17T00:13:55.417Z,10.23
2023-04-17T00:16:42.185Z,10.19
2023-04-17T00:19:30.520Z,10.31
2023-04-17T00:22:17.518Z,10.31
2023-04-17T00:25:04.521Z,10.34
2023-04-17T00:27:51.485Z,10.28
2023-04-17T00:30:38.347Z,10.23
2023-04-17T00:33:25.155Z,10.33
2023-04-17T00:36:13.924Z,10.41
2023-04-17T00:39:00.713Z,10.37
2023-04-17T00:41:47.756Z,10.49
2023-04-17T00:44:34.598Z,10.36
2023-04-17T00:47:23.468Z,10.28
2023-04-17T00:50:11.388Z,10.38
2023-04-17T00:53:00.740Z,10.30
2023-04-17T00:55:49.337Z,10.21
2023-04-17T00:58:38.289Z,10.26
2023-04-17T01:01:25.632Z,10.28
2023-04-17T01:04:12.758Z,10.37
2023-04-17T01:07:00.505Z,10.27
2023-04-17T01:09:48.736Z,10.21
2023-04-17T01:12:36.031Z,10.12
2023-04-17T01:15:22.538Z,10.15
2023-04-17T01:18:09.321Z,10.04
2023-04-17T01:20:56.131Z,10.05
2023-04-17T01:23:46.450Z,10.04
2023-04-17T01:26:35.117Z,10.01
2023-04-17T01:29:22.643Z,9.89
2023-04-17T01:32:10.300Z,9.66
2023-04-17T01:34:56.956Z,9.69
2023-04-17T01:37:44.367Z,9.71
2023-04-17T01:40:31.211Z,9.72
2023-04-17T01:43:19.488Z,9.68
2023-04-17T01:46:06.710Z,9.63
2023-04-17T01:48:53.620Z,9.52
2023-04-17T01:51:40.082Z,9.47
2023-04-17T01:54:27.105Z,9.47
2023-04-17T01:57:13.814Z,9.49
2023-04-17T02:00:01.926Z,9.37
2023-04-17T02:02:58.820Z,9.51
2023-04-17T02:05:47.219Z,9.41
2023-04-17T02:08:34.342Z,9.36
2023-04-17T02:11:23.127Z,9.18
2023-04-17T02:14:10.967Z,9.20
2023-04-17T02:16:59.072Z,9.18
2023-04-17T02:19:45.817Z,9.24
2023-04-17T02:22:32.581Z,9.22
2023-04-17T02:25:19.246Z,9.00
2023-04-17T02:28:06.505Z,9.17
2023-04-17T02:30:54.875Z,9.09
2023-04-17T02:33:43.056Z,9.13
2023-04-17T02:36:30.806Z,9.22
2023-04-17T02:39:17.370Z,9.14
2023-04-17T02:42:04.966Z,9.11
2023-04-17T02:44:51.627Z,9.08
2023-04-17T02:47:40.555Z,9.12
2023-04-17T02:50:28.964Z,9.06
2023-04-17T02:53:25.453Z,9.09
2023-04-17T02:56:12.656Z,9.03
2023-04-17T02:58:59.581Z,8.94
2023-04-17T03:01:46.733Z,8.97
2023-04-17T03:04:35.782Z,9.06
2023-04-17T03:07:23.897Z,8.98
2023-04-17T03:10:10.959Z,9.06
2023-04-17T03:12:57.802Z,9.10
2023-04-17T03:15:44.433Z,9.06
2023-04-17T03:18:31.366Z,9.10
2023-04-17T03:21:17.971Z,9.06
2023-04-17T03:24:06.892Z,9.02
2023-04-17T03:26:54.074Z,9.01
2023-04-17T03:29:42.120Z,8.97
2023-04-17T03:32:28.896Z,9.00
2023-04-17T03:35:15.742Z,9.06
2023-04-17T03:38:02.865Z,8.92
2023-04-17T03:40:51.314Z,8.85
2023-04-17T03:43:38.962Z,8.91
2023-04-17T03:46:28.415Z,8.74
2023-04-17T03:49:15.064Z,8.70
2023-04-17T03:52:03.819Z,8.69
2023-04-17T03:54:50.945Z,8.73
2023-04-17T03:57:39.230Z,8.58
2023-04-17T04:00:26.184Z,8.55
2023-04-17T04:03:18.688Z,8.43
2023-04-17T04:06:07.369Z,8.39
2023-04-17T04:08:54.666Z,8.45
2023-04-17T04:11:42.296Z,8.47
2023-04-17T04:14:30.301Z,8.51
2023-04-17T04:17:17.107Z,8.58
2023-04-17T04:20:05.119Z,8.61
2023-04-17T04:22:51.598Z,8.71
2023-04-17T04:25:41.810Z,8.86
2023-04-17T04:28:42.765Z,8.87
2023-04-17T04:31:39.005Z,8.90
2023-04-17T04:34:30.113Z,9.07
2023-04-17T04:37:16.444Z,8.92
2023-04-17T04:40:10.723Z,9.24
2023-04-17T04:43:00.852Z,9.23
2023-04-17T04:45:54.989Z,9.26
2023-04-17T04:48:44.959Z,9.09
2023-04-17T04:51:33.893Z,8.78
2023-04-17T04:54:23.754Z,8.83
2023-04-17T04:57:15.380Z,8.85
2023-04-17T05:00:06.585Z,9.00
2023-04-17T05:02:59.450Z,8.78
2023-04-17T05:05:48.429Z,8.98
2023-04-17T05:08:35.252Z,8.87
2023-04-17T05:11:29.085Z,8.85
2023-04-17T05:14:17.303Z,8.97
2023-04-17T05:17:04.268Z,8.55
2023-04-17T05:19:51.013Z,8.85
2023-04-17T05:22:41.076Z,8.92
2023-04-17T05:25:30.848Z,8.87
2023-04-17T05:28:19.062Z,8.71
2023-04-17T05:31:06.321Z,8.89
2023-04-17T05:33:58.463Z,9.15
2023-04-17T05:36:45.206Z,9.06
2023-04-17T05:39:34.390Z,9.01
2023-04-17T05:42:21.733Z,9.37
2023-04-17T05:45:10.162Z,9.31
2023-04-17T05:47:56.900Z,9.44
2023-04-17T05:50:43.802Z,9.46
2023-04-17T05:53:31.885Z,9.15
2023-04-17T05:56:20.448Z,9.25
2023-04-17T05:59:07.098Z,9.44
2023-04-17T06:01:54.495Z,9.14
2023-04-17T06:04:42.676Z,9.34
2023-04-17T06:07:29.593Z,9.18
2023-04-17T06:10:16.339Z,9.37
2023-04-17T06:13:04.524Z,9.58
2023-04-17T06:15:51.522Z,9.53
2023-04-17T06:18:38.484Z,9.63
2023-04-17T06:21:25.346Z,9.80
2023-04-17T06:24:12.292Z,9.73
2023-04-17T06:27:04.974Z,9.60
2023-04-17T06:29:53.344Z,9.68
2023-04-17T06:32:42.954Z,9.46
2023-04-17T06:35:29.934Z,9.58
2023-04-17T06:38:29.388Z,9.81
2023-04-17T06:41:16.434Z,9.82
2023-04-17T06:44:02.986Z,9.84
2023-04-17T06:47:05.971Z,9.77
2023-04-17T06:49:52.479Z,9.77
2023-04-17T06:52:39.229Z,9.99
2023-04-17T06:55:26.104Z,10.11
2023-04-17T06:58:12.951Z,9.57
2023-04-17T07:00:59.751Z,10.05
2023-04-17T07:03:48.256Z,10.01
2023-04-17T07:06:35.354Z,10.30
2023-04-17T07:09:21.888Z,10.23
2023-04-17T07:12:08.837Z,9.79
2023-04-17T07:14:55.544Z,10.17
2023-04-17T07:17:42.326Z,10.61
2023-04-17T07:20:30.757Z,10.95
2023-04-17T07:23:17.444Z,11.12
2023-04-17T07:26:04.127Z,10.81
2023-04-17T07:28:50.976Z,11.09
2023-04-17T07:31:37.833Z,11.09
2023-04-17T07:34:25.487Z,11.47
2023-04-17T07:37:15.088Z,11.63
2023-04-17T07:40:01.918Z,11.70
2023-04-17T07:42:48.641Z,11.73
2023-04-17T07:45:37.651Z,11.92
2023-04-17T07:48:27.222Z,11.68
2023-04-17T07:51:13.830Z,11.71
2023-04-17T07:54:02.106Z,11.29
2023-04-17T07:56:49.489Z,11.53
2023-04-17T07:59:36.998Z,11.47
2023-04-17T08:02:23.913Z,11.71
2023-04-17T08:05:11.690Z,11.87
2023-04-17T08:08:00.304Z,11.41
2023-04-17T08:10:48.120Z,11.35
2023-04-17T08:13:34.670Z,11.11
2023-04-17T08:16:21.362Z,11.55
2023-04-17T08:19:08.210Z,12.02
2023-04-17T08:22:03.773Z,11.77
2023-04-17T08:24:50.307Z,12.02
2023-04-17T08:27:39.938Z,11.43
2023-04-17T08:30:26.856Z,11.91
2023-04-17T08:33:16.885Z,12.22
2023-04-17T08:36:04.781Z,11.86
2023-04-17T08:38:52.903Z,11.58
2023-04-17T08:41:45.299Z,11.79
2023-04-17T08:44:33.104Z,11.53
2023-04-17T08:47:19.929Z,11.62
2023-04-17T08:50:11.861Z,11.60
2023-04-17T08:52:58.755Z,11.22
2023-04-17T08:55:46.314Z,11.59
2023-04-17T08:58:33.760Z,11.80
2023-04-17T09:01:22.981Z,11.72
2023-04-17T09:04:09.847Z,11.76
2023-04-17T09:06:56.843Z,11.23
2023-04-17T09:09:52.192Z,10.94
2023-04-17T09:12:41.954Z,11.29
2023-04-17T09:15:28.591Z,11.84
2023-04-17T09:18:27.649Z,11.97
2023-04-17T09:21:16.596Z,11.98
2023-04-17T09:24:05.450Z,12.04
2023-04-17T09:26:52.308Z,11.57
2023-04-17T09:29:57.086Z,12.07
2023-04-17T09:32:44.042Z,12.29
2023-04-17T09:35:32.854Z,12.40
2023-04-17T09:38:37.745Z,12.03
2023-04-17T09:41:26.095Z,12.23
2023-04-17T09:44:13.033Z,12.62
2023-04-17T09:47:01.594Z,12.66
2023-04-17T09:49:52.585Z,12.99
2023-04-17T09:52:41.625Z,13.22
2023-04-17T09:55:30.279Z,12.52
2023-04-17T09:58:17.169Z,12.89
2023-04-17T10:01:03.813Z,12.68
2023-04-17T10:03:51.202Z,12.35
2023-04-17T10:06:38.009Z,12.48
2023-04-17T10:09:26.575Z,12.37
2023-04-17T10:12:15.694Z,12.46
2023-04-17T10:15:03.416Z,12.23
2023-04-17T10:17:50.845Z,12.93
2023-04-17T10:20:39.206Z,13.02
2023-04-17T10:23:33.529Z,12.87
2023-04-17T10:26:39.526Z,13.23
2023-04-17T10:29:56.487Z,13.35
2023-04-17T10:32:44.318Z,13.32
2023-04-17T10:35:35.949Z,13.13
2023-04-17T10:38:33.705Z,13.18
2023-04-17T10:41:21.484Z,13.60
2023-04-17T10:44:09.426Z,13.58
2023-04-17T10:46:56.261Z,13.67
2023-04-17T10:49:54.692Z,13.44
2023-04-17T10:52:45.034Z,13.28
2023-04-17T10:55:31.952Z,13.83
2023-04-17T10:58:18.415Z,13.14
2023-04-17T11:01:11.544Z,12.94
2023-04-17T11:03:59.758Z,12.62
2023-04-17T11:06:47.827Z,13.02
2023-04-17T11:09:36.123Z,12.79
2023-04-17T11:12:22.930Z,13.08
2023-04-17T11:15:10.428Z,12.82
2023-04-17T11:18:00.506Z,12.76
2023-04-17T11:20:47.103Z,12.26
2023-04-17T11:23:34.612Z,12.43
2023-04-17T11:26:21.607Z,12.67
2023-04-17T11:29:15.161Z,12.84
2023-04-17T11:32:01.838Z,12.86
2023-04-17T11:34:49.767Z,12.22
2023-04-17T11:37:36.559Z,12.21
2023-04-17T11:40:24.198Z,12.54
2023-04-17T11:43:11.417Z,12.86
2023-04-17T11:45:59.869Z,12.84
2023-04-17T11:48:50.219Z,12.79
2023-04-17T11:51:38.574Z,12.98
2023-04-17T11:54:28.817Z,13.19
2023-04-17T11:57:16.376Z,13.25
2023-04-17T12:00:14.126Z,13.04
2023-04-17T12:03:03.712Z,13.38
2023-04-17T12:05:59.837Z,13.13
2023-04-17T12:08:50.511Z,13.17
2023-04-17T12:11:37.354Z,13.44
2023-04-17T12:14:26.257Z,13.37
2023-04-17T12:17:12.920Z,12.81
2023-04-17T12:20:03.425Z,12.29
2023-04-17T12:22:50.288Z,12.74
2023-04-17T12:25:38.525Z,12.73
2023-04-17T12:28:25.712Z,12.36
2023-04-17T12:31:12.822Z,12.38
2023-04-17T12:33:59.522Z,12.58
2023-04-17T12:36:46.350Z,12.62
2023-04-17T12:39:33.494Z,12.60
2023-04-17T12:42:21.562Z,12.55
2023-04-17T12:45:09.971Z,12.73
2023-04-17T12:47:56.671Z,12.72
2023-04-17T12:50:43.986Z,12.13
2023-04-17T12:53:30.707Z,12.51
2023-04-17T12:56:17.448Z,12.70
2023-04-17T12:59:05.938Z,12.16
2023-04-17T13:01:52.887Z,12.26
2023-04-17T13:04:40.122Z,12.13
2023-04-17T13:07:26.838Z,12.32
2023-04-17T13:10:13.656Z,12.44
2023-04-17T13:13:02.342Z,12.69
2023-04-17T13:15:50.495Z,12.18
2023-04-17T13:18:37.666Z,11.96
2023-04-17T13:21:24.798Z,12.21
2023-04-17T13:24:14.709Z,12.33
2023-04-17T13:27:01.651Z,12.56
2023-04-17T13:29:48.451Z,12.78
2023-04-17T13:32:36.898Z,12.67
2023-04-17T13:35:23.563Z,12.63
2023-04-17T13:38:10.293Z,12.50
2023-04-17T13:40:57.189Z,12.19
2023-04-17T13:43:44.269Z,12.17
2023-04-17T13:46:31.973Z,12.29
2023-04-17T13:49:20.699Z,12.28
2023-04-17T13:52:08.330Z,12.63
2023-04-17T13:54:54.922Z,12.55
2023-04-17T13:57:41.820Z,12.49
2023-04-17T14:00:28.580Z,12.43
2023-04-17T14:03:15.849Z,12.18
2023-04-17T14:06:03.990Z,11.94
2023-04-17T14:08:50.830Z,11.69
2023-04-17T14:11:37.960Z,11.63
2023-04-17T14:14:24.957Z,11.71
2023-04-17T14:17:11.497Z,11.84
2023-04-17T14:19:58.580Z,11.87
2023-04-17T14:22:47.096Z,11.96
2023-04-17T14:25:33.832Z,11.52
2023-04-17T14:28:21.237Z,11.67
2023-04-17T14:31:08.212Z,11.61
2023-04-17T14:34:00.030Z,11.44
2023-04-17T14:36:46.970Z,11.51
2023-04-17T14:39:35.189Z,11.71
2023-04-17T14:42:22.107Z,11.88
2023-04-17T14:45:10.025Z,11.79
2023-04-17T14:47:57.055Z,11.71
2023-04-17T14:50:45.711Z,11.16
2023-04-17T14:53:32.638Z,11.05
2023-04-17T14:56:21.528Z,11.34
2023-04-17T14:59:08.467Z,11.30
2023-04-17T15:01:55.782Z,11.15
2023-04-17T15:04:42.554Z,11.04
2023-04-17T15:07:29.404Z,11.22
2023-04-17T15:10:16.711Z,10.90
2023-04-17T15:13:04.594Z,10.93
2023-04-17T15:15:51.281Z,11.02
2023-04-17T15:18:39.477Z,10.81
2023-04-17T15:21:27.259Z,11.01
2023-04-17T15:24:14.578Z,10.99
2023-04-17T15:27:01.809Z,11.21
2023-04-17T15:29:50.580Z,11.15
2023-04-17T15:32:37.290Z,11.37
2023-04-17T15:35:23.944Z,11.44
2023-04-17T15:38:10.715Z,11.58
2023-04-17T15:40:57.500Z,11.50
2023-04-17T15:43:44.299Z,11.39
2023-04-17T15:46:32.535Z,11.38
2023-04-17T15:49:19.035Z,11.45
2023-04-17T15:52:06.577Z,11.62
2023-04-17T15:54:53.127Z,11.56
2023-04-17T15:57:41.128Z,11.46
2023-04-17T16:00:29.898Z,11.60
2023-04-17T16:03:18.336Z,11.66
2023-04-17T16:06:05.714Z,11.84
2023-04-17T16:08:52.520Z,11.80
2023-04-17T16:11:39.379Z,12.01
2023-04-17T16:14:26.807Z,12.03
2023-04-17T16:17:13.612Z,12.08
2023-04-17T16:20:01.732Z,12.04
2023-04-17T16:22:48.389Z,11.94
2023-04-17T16:25:35.173Z,12.07
2023-04-17T16:28:22.147Z,12.01
2023-04-17T16:31:08.762Z,11.92
2023-04-17T16:33:56.153Z,11.71
2023-04-17T16:36:45.772Z,11.67
2023-04-17T16:39:32.859Z,11.75
2023-04-17T16:42:19.586Z,11.71
2023-04-17T16:45:07.699Z,11.79
2023-04-17T16:47:54.217Z,11.85
2023-04-17T16:50:40.800Z,11.42
2023-04-17T16:53:28.866Z,11.93
2023-04-17T16:56:15.630Z,11.89
2023-04-17T16:59:02.230Z,11.96
2023-04-17T17:01:50.002Z,11.87
2023-04-17T17:04:36.904Z,11.80
2023-04-17T17:07:23.766Z,11.82
2023-04-17T17:10:12.522Z,11.73
2023-04-17T17:12:58.920Z,11.77
2023-04-17T17:15:45.819Z,11.85
2023-04-17T17:18:32.565Z,11.79
2023-04-17T17:21:19.498Z,11.59
2023-04-17T17:24:06.987Z,11.63
2023-04-17T17:26:55.143Z,11.61
2023-04-17T17:29:42.106Z,11.47
2023-04-17T17:32:28.743Z,11.49
2023-04-17T17:35:15.514Z,11.47
2023-04-17T17:38:02.272Z,11.57
2023-04-17T17:40:49.117Z,11.41
2023-04-17T17:43:37.454Z,11.33
2023-04-17T17:46:25.058Z,11.42
2023-04-17T17:49:11.518Z,11.41
2023-04-17T17:51:58.405Z,11.26
2023-04-17T17:54:45.166Z,11.30
2023-04-17T17:57:42.282Z,11.23
2023-04-17T18:00:36.562Z,11.29
2023-04-17T18:03:23.311Z,11.20
2023-04-17T18:06:09.868Z,11.27
2023-04-17T18:08:58.745Z,11.24
2023-04-17T18:11:45.602Z,11.14
2023-04-17T18:14:32.004Z,11.20
2023-04-17T18:17:20.189Z,11.27
2023-04-17T18:20:08.058Z,11.14
2023-04-17T18:22:54.772Z,11.20
2023-04-17T18:25:41.470Z,11.20
2023-04-17T18:28:28.336Z,11.15
2023-04-17T18:31:15.336Z,11.04
2023-04-17T18:34:03.279Z,11.00
2023-04-17T18:36:50.106Z,11.07
2023-04-17T18:39:37.033Z,11.03
2023-04-17T18:42:23.839Z,10.86
2023-04-17T18:45:13.673Z,10.94
2023-04-17T18:48:00.202Z,10.95
2023-04-17T18:50:48.303Z,10.94
2023-04-17T18:53:35.051Z,10.89
2023-04-17T18:56:22.663Z,10.92
2023-04-17T18:59:09.240Z,10.95
2023-04-17T19:01:57.221Z,10.98
2023-04-17T19:04:45.128Z,10.74
2023-04-17T19:07:33.240Z,11.01
2023-04-17T19:10:20.289Z,11.06
2023-04-17T19:13:09.886Z,10.92
2023-04-17T19:15:56.727Z,10.86
2023-04-17T19:18:43.382Z,10.96
2023-04-17T19:21:31.781Z,10.95
2023-04-17T19:24:21.806Z,10.57
2023-04-17T19:27:08.384Z,11.09
2023-04-17T19:29:55.331Z,10.95
2023-04-17T19:32:42.320Z,10.87
2023-04-17T19:35:28.939Z,10.93
2023-04-17T19:38:17.123Z,10.96
2023-04-17T19:41:15.054Z,11.02
2023-04-17T19:44:02.009Z,10.90
2023-04-17T19:46:48.687Z,10.92
2023-04-17T19:49:35.621Z,10.95
2023-04-17T19:52:22.079Z,10.93
2023-04-17T19:55:09.414Z,10.89
2023-04-17T19:57:58.859Z,11.00
2023-04-17T20:00:45.450Z,10.90
2023-04-17T20:03:33.134Z,10.83
2023-04-17T20:06:20.175Z,10.84
2023-04-17T20:09:06.762Z,10.77
2023-04-17T20:11:53.458Z,10.80
2023-04-17T20:14:41.607Z,10.73
2023-04-17T20:17:28.361Z,10.79
2023-04-17T20:20:15.201Z,10.78
2023-04-17T20:23:02.173Z,10.65
2023-04-17T20:25:48.988Z,10.62
2023-04-17T20:28:35.851Z,10.82
2023-04-17T20:31:24.062Z,10.74
2023-04-17T20:34:10.757Z,10.84
2023-04-17T20:36:57.489Z,10.68
2023-04-17T20:39:44.254Z,10.54
2023-04-17T20:42:31.117Z,10.74
2023-04-17T20:45:17.874Z,10.63
2023-04-17T20:48:06.341Z,10.50
2023-04-17T20:50:52.894Z,10.60
2023-04-17T20:53:39.626Z,10.58
2023-04-17T20:56:26.354Z,10.42
2023-04-17T20:59:13.119Z,10.45
2023-04-17T21:02:00.101Z,10.29
2023-04-17T21:04:48.099Z,10.34
2023-04-17T21:07:34.826Z,10.32
2023-04-17T21:10:21.849Z,10.17
2023-04-17T21:13:08.556Z,10.25
2023-04-17T21:15:55.424Z,10.20
2023-04-17T21:18:42.195Z,10.30
2023-04-17T21:21:30.612Z,10.02
2023-04-17T21:24:17.121Z,10.02
2023-04-17T21:27:04.317Z,9.91
2023-04-17T21:29:50.810Z,9.76
2023-04-17T21:32:37.663Z,9.85
2023-04-17T21:35:24.758Z,9.75
2023-04-17T21:38:13.111Z,9.82
2023-04-17T21:40:59.808Z,9.80
2023-04-17T21:43:46.780Z,9.65
2023-04-17T21:46:33.694Z,9.67
2023-04-17T21:49:20.735Z,9.59
2023-04-17T21:52:07.300Z,9.62
2023-04-17T21:55:02.786Z,9.77
2023-04-17T21:57:49.693Z,9.61
2023-04-17T22:00:36.448Z,9.57
2023-04-17T22:03:23.290Z,9.50
2023-04-17T22:06:09.873Z,9.42
2023-04-17T22:08:56.537Z,9.42
2023-04-17T22:11:44.876Z,9.24
2023-04-17T22:14:32.811Z,9.20
2023-04-17T22:17:21.096Z,9.08
2023-04-17T22:20:09.491Z,9.03
2023-04-17T22:22:56.059Z,9.27
2023-04-17T22:25:42.831Z,9.10
2023-04-17T22:28:31.979Z,9.16
2023-04-17T22:31:18.479Z,8.97
2023-04-17T22:34:05.100Z,8.83
2023-04-17T22:36:52.002Z,8.79
2023-04-17T22:39:38.652Z,8.78
2023-04-17T22:42:25.784Z,8.81
2023-04-17T22:45:13.774Z,8.65
2023-04-17T22:48:00.826Z,8.66
2023-04-17T22:50:47.413Z,8.61
2023-04-17T22:53:34.475Z,8.57
2023-04-17T22:56:21.057Z,8.55
2023-04-17T22:59:07.804Z,8.54
2023-04-17T23:01:56.075Z,8.38
2023-04-17T23:04:42.799Z,8.33
2023-04-17T23:07:29.094Z,8.28
2023-04-17T23:10:16.088Z,8.32
2023-04-17T23:13:02.667Z,8.33
2023-04-17T23:15:49.353Z,8.21
2023-04-17T23:18:37.627Z,8.30
2023-04-17T23:21:24.537Z,8.35
2023-04-17T23:24:11.702Z,8.32
2023-04-17T23:26:58.274Z,8.39
2023-04-17T23:29:45.073Z,8.41
2023-04-17T23:32:31.853Z,8.49
2023-04-17T23:35:20.101Z,8.51
2023-04-17T23:38:06.985Z,8.56
2023-04-17T23:40:53.702Z,8.55
2023-04-17T23:43:40.420Z,8.63
2023-04-17T23:46:27.373Z,8.50
2023-04-17T23:49:14.155Z,8.56
2023-04-17T23:52:02.276Z,8.57
2023-04-17T23:54:48.931Z,8.60
2023-04-17T23:57:37.846Z,8.57
